Time;durP1;ratioP1;P1;durP2;ratioP2;P2;SDS_P1;SDS_P2;PMS_P1;PMS_P2;Temp;Humidity;BMP_temperature;BMP_pressure;BME280_temperature;BME280_humidity;BME280_pressure;Samples;Min_cycle;Max_cycle;Signal;HPM_P1;HPM_P2
2021/08/23 00:00:33;;;;;;;5.32;3.72;;;15.20;95.40;;;;;;5027008;28;20108;-69
2021/08/23 00:02:58;;;;;;;6.93;3.85;;;15.20;95.40;;;;;;5029073;28;20026;-69
2021/08/23 00:05:24;;;;;;;6.28;3.83;;;15.20;95.50;;;;;;5029092;28;20083;-68
2021/08/23 00:07:50;;;;;;;8.18;3.60;;;15.20;95.50;;;;;;5030165;28;20033;-68
2021/08/23 00:10:15;;;;;;;5.10;3.67;;;15.20;95.50;;;;;;5028159;28;20033;-68
2021/08/23 00:12:41;;;;;;;8.52;3.70;;;15.20;95.50;;;;;;5030627;28;20029;-68
2021/08/23 00:15:07;;;;;;;3.85;3.40;;;15.20;95.50;;;;;;5028967;28;20497;-68
2021/08/23 00:17:33;;;;;;;4.15;3.38;;;15.20;95.50;;;;;;5029182;28;20092;-68
2021/08/23 00:19:59;;;;;;;8.40;3.83;;;15.20;95.50;;;;;;5030676;28;20059;-68
2021/08/23 00:22:35;;;;;;;3.75;3.35;;;15.20;95.40;;;;;;5022164;28;20432;-68
2021/08/23 00:25:02;;;;;;;5.88;4.00;;;15.20;95.40;;;;;;5030473;28;20024;-68
2021/08/23 00:27:30;;;;;;;6.30;4.05;;;15.20;95.40;;;;;;5029297;28;20037;-68
2021/08/23 00:29:56;;;;;;;9.20;3.78;;;15.20;95.40;;;;;;5025562;28;20044;-68
2021/08/23 00:32:23;;;;;;;5.00;3.45;;;15.20;95.40;;;;;;5029445;28;20101;-68
2021/08/23 00:34:49;;;;;;;4.05;3.58;;;15.10;95.30;;;;;;5028003;28;20447;-68
2021/08/23 00:37:15;;;;;;;5.63;3.83;;;15.20;95.40;;;;;;5029683;28;20040;-68
2021/08/23 00:39:41;;;;;;;3.65;3.15;;;15.20;95.50;;;;;;5029614;28;20025;-68
2021/08/23 00:42:07;;;;;;;6.95;4.30;;;15.20;95.80;;;;;;5028689;28;20508;-68
2021/08/23 00:44:37;;;;;;;6.40;3.78;;;15.20;95.50;;;;;;5026869;28;20082;-68
2021/08/23 00:47:06;;;;;;;5.32;3.55;;;15.20;95.50;;;;;;5027653;28;20370;-68
2021/08/23 00:49:33;;;;;;;5.20;4.03;;;15.20;95.50;;;;;;5029306;28;20034;-68
2021/08/23 00:51:59;;;;;;;6.78;3.92;;;15.20;95.60;;;;;;5029749;28;20040;-68
2021/08/23 00:54:25;;;;;;;7.25;3.45;;;15.20;95.50;;;;;;5029224;28;20120;-68
2021/08/23 00:56:51;;;;;;;8.43;3.95;;;15.10;95.40;;;;;;5020594;28;20100;-68
2021/08/23 00:59:26;;;;;;;4.68;3.78;;;15.10;95.40;;;;;;5029331;28;20156;-68
2021/08/23 01:02:38;;;;;;;6.43;3.45;;;15.10;95.50;;;;;;5027626;28;20022;-68
2021/08/23 01:05:13;;;;;;;5.25;3.65;;;15.10;95.60;;;;;;5009446;28;20049;-68
2021/08/23 01:07:51;;;;;;;5.95;3.67;;;15.10;95.50;;;;;;5008780;28;20034;-68
2021/08/23 01:10:22;;;;;;;7.57;4.43;;;15.10;95.50;;;;;;5029736;28;20033;-68
2021/08/23 01:12:48;;;;;;;6.97;4.20;;;15.10;95.50;;;;;;5028589;28;20029;-68
2021/08/23 01:15:14;;;;;;;7.07;3.78;;;15.00;95.50;;;;;;5027976;28;20124;-68
2021/08/23 01:17:39;;;;;;;4.97;3.90;;;15.00;95.50;;;;;;5026113;28;20029;-68
2021/08/23 01:20:07;;;;;;;6.22;3.85;;;15.00;95.60;;;;;;5028550;28;20061;-68
2021/08/23 01:22:41;;;;;;;9.07;4.20;;;15.00;95.60;;;;;;5028827;28;20057;-68
2021/08/23 01:25:09;;;;;;;5.60;3.75;;;15.00;95.70;;;;;;5038364;28;20239;-68
2021/08/23 01:27:38;;;;;;;8.45;4.00;;;15.10;95.70;;;;;;5028266;28;20025;-68
2021/08/23 01:30:08;;;;;;;5.05;3.63;;;15.10;95.70;;;;;;5028049;28;20053;-68
2021/08/23 01:32:34;;;;;;;8.00;4.05;;;15.10;95.70;;;;;;5028870;28;20362;-68
2021/08/23 01:35:04;;;;;;;7.40;4.60;;;15.10;95.80;;;;;;5028190;28;20034;-68
2021/08/23 01:37:31;;;;;;;5.85;3.70;;;15.10;95.70;;;;;;5028459;28;20033;-68
2021/08/23 01:39:57;;;;;;;5.45;3.75;;;15.10;95.70;;;;;;5024587;28;20029;-68
2021/08/23 01:42:24;;;;;;;5.32;3.92;;;15.10;95.70;;;;;;5029186;28;20438;-68
2021/08/23 01:44:49;;;;;;;4.55;3.75;;;15.10;95.80;;;;;;5029737;28;20045;-68
2021/08/23 01:47:15;;;;;;;4.07;3.33;;;15.10;95.80;;;;;;5032863;28;20037;-68
2021/08/23 01:49:41;;;;;;;4.05;3.47;;;15.10;95.80;;;;;;5033480;28;20026;-68
2021/08/23 01:52:13;;;;;;;7.22;3.63;;;15.20;95.90;;;;;;5031755;28;20103;-68
2021/08/23 01:54:43;;;;;;;4.90;3.85;;;15.20;96.00;;;;;;5032913;28;20044;-68
2021/08/23 01:57:17;;;;;;;9.45;4.07;;;15.20;95.90;;;;;;5030778;28;20029;-68
2021/08/23 01:59:45;;;;;;;5.45;3.72;;;15.30;96.00;;;;;;5033805;28;20477;-68
2021/08/23 02:02:10;;;;;;;6.93;3.40;;;15.30;95.90;;;;;;5031568;28;20488;-68
2021/08/23 02:04:36;;;;;;;5.43;3.38;;;15.30;96.00;;;;;;5030088;28;20053;-68
2021/08/23 02:07:02;;;;;;;4.45;3.55;;;15.30;96.00;;;;;;5028930;28;20115;-68
2021/08/23 02:09:28;;;;;;;5.65;3.60;;;15.30;96.00;;;;;;5014542;28;20505;-68
2021/08/23 02:11:53;;;;;;;7.57;3.92;;;15.30;96.00;;;;;;5030999;28;20129;-68
2021/08/23 02:14:19;;;;;;;4.13;3.50;;;15.40;96.00;;;;;;5029604;28;20030;-68
2021/08/23 02:16:45;;;;;;;6.28;4.20;;;15.40;96.00;;;;;;5029364;28;20501;-68
2021/08/23 02:19:10;;;;;;;7.15;4.07;;;15.40;96.00;;;;;;5031847;28;20371;-68
2021/08/23 02:21:47;;;;;;;4.22;3.25;;;15.30;95.90;;;;;;5033107;28;20125;-68
2021/08/23 02:24:13;;;;;;;7.05;3.42;;;15.30;96.00;;;;;;5032827;28;20109;-68
2021/08/23 02:26:38;;;;;;;5.93;3.78;;;15.30;96.00;;;;;;5031631;28;20057;-68
2021/08/23 02:29:04;;;;;;;4.85;4.10;;;15.30;96.00;;;;;;5031610;28;20108;-68
2021/08/23 02:31:29;;;;;;;5.05;3.75;;;15.30;96.00;;;;;;5031747;28;20025;-68
2021/08/23 02:33:55;;;;;;;8.25;4.20;;;15.30;96.20;;;;;;5030531;28;20041;-68
2021/08/23 02:36:20;;;;;;;5.90;3.75;;;15.30;95.90;;;;;;5030164;28;20023;-68
2021/08/23 02:38:49;;;;;;;5.93;3.63;;;15.30;96.00;;;;;;5030178;28;20038;-68
2021/08/23 02:41:15;;;;;;;7.47;4.15;;;15.30;96.00;;;;;;5030989;28;20322;-68
2021/08/23 02:43:40;;;;;;;6.32;3.90;;;15.20;95.90;;;;;;5031893;28;20025;-68
2021/08/23 02:46:06;;;;;;;6.85;4.03;;;15.20;96.00;;;;;;5029906;28;20121;-68
2021/08/23 02:48:31;;;;;;;4.22;3.83;;;15.20;96.00;;;;;;5032764;28;20018;-68
2021/08/23 02:50:57;;;;;;;7.60;4.53;;;15.20;96.00;;;;;;5031580;28;20025;-68
2021/08/23 02:53:22;;;;;;;4.45;3.70;;;15.20;96.10;;;;;;5032162;28;20036;-68
2021/08/23 02:55:48;;;;;;;6.90;3.78;;;15.20;96.10;;;;;;5030523;28;20390;-68
2021/08/23 02:58:13;;;;;;;9.75;4.47;;;15.20;96.20;;;;;;5032170;28;20096;-68
2021/08/23 03:00:39;;;;;;;4.63;4.10;;;15.30;96.20;;;;;;5032119;28;20025;-68
2021/08/23 03:03:05;;;;;;;8.27;4.43;;;15.20;96.10;;;;;;5033108;28;20064;-68
2021/08/23 03:05:30;;;;;;;5.22;4.10;;;15.20;96.10;;;;;;5028108;28;20017;-68
2021/08/23 03:07:56;;;;;;;6.18;4.10;;;15.20;96.10;;;;;;5031855;28;20061;-67
2021/08/23 03:10:22;;;;;;;6.95;4.40;;;15.20;96.20;;;;;;5029805;28;20026;-68
2021/08/23 03:12:47;;;;;;;8.75;4.75;;;15.30;96.30;;;;;;5032619;28;20033;-68
2021/08/23 03:15:13;;;;;;;6.97;3.88;;;15.20;96.20;;;;;;5031299;28;20049;-68
2021/08/23 03:17:38;;;;;;;6.63;4.13;;;15.20;96.20;;;;;;5030530;28;20039;-69
2021/08/23 03:20:05;;;;;;;5.60;3.83;;;15.20;96.30;;;;;;5030356;28;20025;-68
2021/08/23 03:22:30;;;;;;;6.03;4.35;;;15.30;96.40;;;;;;5028723;28;20022;-68
2021/08/23 03:24:56;;;;;;;6.75;4.78;;;15.30;96.40;;;;;;5030159;28;20096;-68
2021/08/23 03:27:21;;;;;;;8.68;4.50;;;15.30;96.40;;;;;;5028549;28;20144;-68
2021/08/23 03:29:51;;;;;;;8.45;4.47;;;15.30;96.40;;;;;;5029302;28;20036;-68
2021/08/23 03:32:17;;;;;;;6.88;4.40;;;15.30;96.30;;;;;;5029439;28;20029;-68
2021/08/23 03:34:43;;;;;;;5.80;4.90;;;15.30;96.40;;;;;;5026588;28;20041;-68
2021/08/23 03:37:08;;;;;;;7.40;4.95;;;15.30;96.40;;;;;;5029260;28;20026;-68
2021/08/23 03:39:34;;;;;;;8.80;5.20;;;15.30;96.40;;;;;;5029860;28;20021;-68
2021/08/23 03:41:59;;;;;;;4.78;4.18;;;15.30;96.40;;;;;;5027963;28;20034;-68
2021/08/23 03:44:25;;;;;;;5.60;4.93;;;15.30;96.40;;;;;;5029995;28;20021;-68
2021/08/23 03:46:52;;;;;;;6.10;4.18;;;15.30;96.40;;;;;;5124007;22;20053;-69
2021/08/23 03:49:18;;;;;;;16.15;5.47;;;15.40;96.50;;;;;;5045002;28;20470;-68
2021/08/23 03:51:44;;;;;;;10.00;5.20;;;15.40;96.50;;;;;;5051732;28;20032;-66
2021/08/23 03:54:10;;;;;;;7.03;4.13;;;15.40;96.50;;;;;;5046104;28;20024;-67
2021/08/23 03:56:35;;;;;;;6.22;4.78;;;15.40;96.50;;;;;;5042686;28;20025;-66
2021/08/23 03:59:01;;;;;;;8.48;4.63;;;15.40;96.50;;;;;;5047574;28;20044;-69
2021/08/23 04:01:27;;;;;;;5.93;4.82;;;15.40;96.50;;;;;;5049705;28;20028;-69
2021/08/23 04:03:52;;;;;;;8.88;5.22;;;15.40;96.40;;;;;;5052210;28;20558;-69
2021/08/23 04:06:18;;;;;;;5.75;4.78;;;15.30;96.40;;;;;;5030589;28;20436;-68
2021/08/23 04:08:44;;;;;;;6.75;4.72;;;15.30;96.40;;;;;;5047908;28;20043;-66
2021/08/23 04:11:14;;;;;;;10.93;5.15;;;15.30;96.40;;;;;;5047160;28;20429;-69
2021/08/23 04:13:40;;;;;;;6.70;5.25;;;15.30;96.50;;;;;;5050260;28;20066;-69
2021/08/23 04:16:13;;;;;;;7.97;5.00;;;15.30;96.50;;;;;;5048844;28;20566;-68
2021/08/23 04:18:39;;;;;;;6.07;4.68;;;15.30;96.50;;;;;;5058133;28;20024;-68
2021/08/23 04:21:05;;;;;;;7.13;4.88;;;15.30;96.50;;;;;;5047865;28;20358;-69
2021/08/23 04:23:31;;;;;;;7.38;5.40;;;15.30;96.50;;;;;;5046388;28;20033;-69
2021/08/23 04:25:57;;;;;;;5.95;5.30;;;15.30;96.50;;;;;;5048916;28;20489;-69
2021/08/23 04:28:22;;;;;;;7.03;5.40;;;15.30;96.50;;;;;;5050430;28;20044;-67
2021/08/23 04:30:48;;;;;;;7.28;5.18;;;15.30;96.50;;;;;;5048772;28;20039;-68
2021/08/23 04:33:13;;;;;;;7.88;5.88;;;15.30;96.50;;;;;;5044851;28;20021;-69
2021/08/23 04:35:39;;;;;;;6.60;5.32;;;15.30;96.60;;;;;;5050301;28;20036;-68
2021/08/23 04:38:04;;;;;;;7.25;5.95;;;15.30;96.60;;;;;;5043747;28;20028;-66
2021/08/23 04:40:30;;;;;;;7.38;6.03;;;15.40;96.60;;;;;;5045880;28;20034;-69
2021/08/23 04:42:56;;;;;;;7.72;6.03;;;15.40;96.60;;;;;;5053028;28;20116;-69
2021/08/23 04:45:21;;;;;;;10.80;6.22;;;15.40;96.60;;;;;;5051618;28;20381;-68
2021/08/23 04:47:47;;;;;;;7.95;5.80;;;15.40;96.60;;;;;;5048692;28;20500;-67
2021/08/23 04:50:12;;;;;;;8.02;6.07;;;15.40;96.60;;;;;;5059927;28;20016;-68
2021/08/23 04:52:45;;;;;;;7.70;5.95;;;15.40;96.70;;;;;;5050592;28;20040;-69
2021/08/23 04:55:12;;;;;;;10.98;6.88;;;15.40;96.70;;;;;;5030860;28;20025;-67
2021/08/23 04:57:38;;;;;;;8.40;6.32;;;15.40;96.70;;;;;;5046316;28;20460;-68
2021/08/23 05:00:07;;;;;;;7.72;6.50;;;15.50;96.60;;;;;;5041852;28;20044;-68
2021/08/23 05:02:32;;;;;;;7.78;5.93;;;15.40;96.80;;;;;;5067161;28;20021;-67
2021/08/23 05:04:58;;;;;;;8.93;6.78;;;15.40;96.50;;;;;;5048474;28;20436;-67
2021/08/23 05:07:24;;;;;;;11.60;7.22;;;15.40;96.60;;;;;;5049970;28;20028;-68
2021/08/23 05:09:49;;;;;;;8.82;6.57;;;15.40;96.60;;;;;;5048551;28;20032;-69
2021/08/23 05:12:15;;;;;;;15.45;10.35;;;15.40;96.60;;;;;;5049672;28;20087;-69
2021/08/23 05:14:40;;;;;;;10.82;7.78;;;15.40;96.60;;;;;;5047408;28;20025;-69
2021/08/23 05:17:06;;;;;;;9.05;7.35;;;15.40;96.70;;;;;;5057174;28;20109;-69
2021/08/23 05:19:31;;;;;;;7.53;6.68;;;15.40;96.60;;;;;;5063174;28;20033;-69
2021/08/23 05:21:57;;;;;;;8.20;6.90;;;15.50;96.60;;;;;;5050371;28;20338;-68
2021/08/23 05:24:22;;;;;;;8.30;6.63;;;15.40;96.60;;;;;;5050132;28;20029;-68
2021/08/23 05:26:48;;;;;;;10.00;6.40;;;15.40;96.50;;;;;;5047261;28;20033;-69
2021/08/23 05:29:14;;;;;;;12.10;6.97;;;15.50;96.60;;;;;;5037707;28;20104;-67
2021/08/23 05:31:39;;;;;;;9.13;6.78;;;15.50;96.60;;;;;;5030607;28;20045;-69
2021/08/23 05:34:05;;;;;;;8.60;6.03;;;15.50;96.60;;;;;;5046054;28;20025;-69
2021/08/23 05:36:30;;;;;;;8.43;6.70;;;15.50;96.60;;;;;;5043968;28;20025;-69
2021/08/23 05:38:56;;;;;;;10.38;5.85;;;15.60;96.70;;;;;;5031920;28;20473;-69
2021/08/23 05:41:21;;;;;;;7.35;5.70;;;15.60;96.70;;;;;;5050704;28;20025;-69
2021/08/23 05:43:47;;;;;;;8.05;6.55;;;15.70;96.70;;;;;;5050091;28;20036;-69
2021/08/23 05:46:15;;;;;;;9.90;6.78;;;15.70;96.70;;;;;;5048652;28;20036;-68
2021/08/23 05:48:41;;;;;;;8.15;6.95;;;15.70;96.70;;;;;;5048978;28;20021;-69
2021/08/23 05:51:09;;;;;;;11.60;6.97;;;15.70;96.60;;;;;;5050069;28;20025;-67
2021/08/23 05:53:35;;;;;;;8.63;6.93;;;15.70;96.60;;;;;;5050112;28;20055;-67
2021/08/23 05:56:01;;;;;;;9.30;6.40;;;15.70;96.60;;;;;;5048916;28;20057;-68
2021/08/23 05:58:26;;;;;;;9.13;6.82;;;15.70;96.60;;;;;;5050030;28;20560;-67
2021/08/23 06:00:52;;;;;;;9.93;6.35;;;15.70;96.60;;;;;;5049876;28;20025;-68
2021/08/23 06:03:17;;;;;;;8.68;6.72;;;15.70;96.60;;;;;;5048523;28;20503;-69
2021/08/23 06:05:43;;;;;;;9.02;6.93;;;15.70;96.60;;;;;;5042168;28;20508;-69
2021/08/23 06:08:08;;;;;;;9.10;5.75;;;15.70;96.60;;;;;;5049734;28;20068;-68
2021/08/23 06:10:34;;;;;;;10.50;6.40;;;15.70;96.60;;;;;;5050274;28;20021;-68
2021/08/23 06:12:59;;;;;;;8.80;5.85;;;15.60;96.50;;;;;;5049807;28;20603;-68
2021/08/23 06:15:25;;;;;;;10.75;6.53;;;15.70;96.60;;;;;;5047066;28;20029;-69
2021/08/23 06:17:51;;;;;;;9.38;6.03;;;15.70;96.60;;;;;;5055628;28;20025;-68
2021/08/23 06:20:16;;;;;;;6.38;5.78;;;15.70;96.60;;;;;;5055976;28;20028;-69
2021/08/23 06:22:43;;;;;;;10.88;5.97;;;15.60;96.50;;;;;;5049103;28;20473;-68
2021/08/23 06:25:09;;;;;;;7.85;5.70;;;15.60;96.50;;;;;;5049385;28;20103;-68
2021/08/23 06:27:35;;;;;;;9.57;6.18;;;15.60;96.50;;;;;;5049591;28;20068;-69
2021/08/23 06:30:02;;;;;;;10.70;5.95;;;15.70;96.60;;;;;;5034046;28;20057;-68
2021/08/23 06:32:28;;;;;;;7.05;5.43;;;15.60;96.60;;;;;;5049689;28;20025;-69
2021/08/23 06:34:54;;;;;;;5.18;4.68;;;15.70;96.60;;;;;;5052340;28;20032;-68
2021/08/23 06:37:20;;;;;;;9.05;6.15;;;15.70;96.70;;;;;;5052965;28;20029;-68
2021/08/23 06:39:45;;;;;;;11.27;7.30;;;15.70;96.60;;;;;;5053176;28;20025;-67
2021/08/23 06:42:11;;;;;;;9.65;5.70;;;15.80;96.70;;;;;;5053190;28;20481;-67
2021/08/23 06:44:37;;;;;;;5.95;5.15;;;15.80;96.70;;;;;;5052336;28;20037;-67
2021/08/23 06:47:02;;;;;;;7.88;5.40;;;15.80;96.70;;;;;;5059555;28;20115;-68
2021/08/23 06:49:28;;;;;;;8.50;6.00;;;15.80;96.70;;;;;;5056528;28;20036;-68
2021/08/23 06:51:54;;;;;;;9.52;5.68;;;15.90;96.70;;;;;;5042315;28;20397;-68
2021/08/23 06:54:19;;;;;;;8.07;5.38;;;15.90;96.70;;;;;;5053113;28;20381;-69
2021/08/23 06:56:45;;;;;;;10.25;7.55;;;15.90;96.70;;;;;;5051750;28;20028;-68
2021/08/23 06:59:11;;;;;;;14.30;8.48;;;15.90;96.70;;;;;;5052364;28;20080;-68
2021/08/23 07:01:37;;;;;;;9.68;5.95;;;15.90;96.60;;;;;;5052717;28;20074;-68
2021/08/23 07:04:03;;;;;;;7.25;5.57;;;15.90;96.70;;;;;;5050605;28;20112;-68
2021/08/23 07:06:28;;;;;;;6.97;5.20;;;16.00;96.60;;;;;;5051163;28;20104;-68
2021/08/23 07:08:54;;;;;;;10.02;5.80;;;16.00;96.60;;;;;;5051913;28;20040;-67
2021/08/23 07:11:19;;;;;;;8.70;5.38;;;16.00;96.80;;;;;;5052550;28;20194;-67
2021/08/23 07:13:45;;;;;;;10.75;5.55;;;16.00;96.60;;;;;;5051915;28;20048;-67
2021/08/23 07:16:11;;;;;;;8.35;5.00;;;16.00;96.50;;;;;;5050899;28;20086;-68
2021/08/23 07:18:37;;;;;;;7.25;5.60;;;16.00;96.50;;;;;;5040656;28;20393;-68
2021/08/23 07:21:04;;;;;;;10.15;5.43;;;16.10;96.50;;;;;;5047003;28;20032;-67
2021/08/23 07:23:29;;;;;;;7.97;6.25;;;16.20;96.50;;;;;;5061958;28;20017;-68
2021/08/23 07:25:55;;;;;;;8.32;5.63;;;16.30;96.60;;;;;;5032084;28;20032;-69
2021/08/23 07:28:20;;;;;;;7.45;5.43;;;16.30;96.60;;;;;;5039054;28;20108;-67
2021/08/23 07:30:46;;;;;;;7.68;5.18;;;16.40;96.60;;;;;;5044757;28;20083;-67
2021/08/23 07:33:12;;;;;;;6.45;5.00;;;16.50;96.50;;;;;;5051420;28;20043;-68
2021/08/23 07:35:38;;;;;;;4.75;4.28;;;16.60;96.60;;;;;;5051031;28;20033;-68
2021/08/23 07:38:04;;;;;;;44.42;31.90;;;16.80;96.50;;;;;;5051501;28;20104;-69
2021/08/23 07:40:30;;;;;;;6.60;5.88;;;16.90;96.40;;;;;;5040327;28;20032;-69
2021/08/23 07:42:56;;;;;;;8.23;4.88;;;17.00;96.40;;;;;;5033700;28;20033;-68
2021/08/23 07:45:22;;;;;;;7.68;4.40;;;17.00;96.20;;;;;;5050276;28;20430;-68
2021/08/23 07:47:48;;;;;;;7.25;4.88;;;17.10;96.10;;;;;;5064313;28;20047;-68
2021/08/23 07:50:14;;;;;;;4.65;3.95;;;17.10;96.10;;;;;;5071142;28;20031;-69
2021/08/23 07:52:40;;;;;;;4.32;3.92;;;17.10;96.10;;;;;;5052785;28;20163;-68
2021/08/23 07:55:07;;;;;;;4.68;4.25;;;17.10;96.10;;;;;;5049429;28;20108;-69
2021/08/23 07:57:33;;;;;;;4.70;4.10;;;17.10;96.10;;;;;;5050772;28;20025;-67
2021/08/23 07:59:58;;;;;;;6.13;4.20;;;17.10;96.10;;;;;;5033489;28;20021;-68
2021/08/23 08:02:24;;;;;;;5.13;4.10;;;17.10;96.10;;;;;;5050793;28;20025;-69
2021/08/23 08:04:50;;;;;;;6.60;3.53;;;17.00;96.00;;;;;;5046049;28;20496;-68
2021/08/23 08:07:16;;;;;;;6.30;4.15;;;17.00;96.00;;;;;;5031079;28;20033;-68
2021/08/23 08:09:42;;;;;;;5.60;4.07;;;17.00;96.00;;;;;;5048870;28;20087;-69
2021/08/23 08:12:07;;;;;;;7.20;4.60;;;17.00;96.00;;;;;;5051108;28;20032;-68
2021/08/23 08:14:33;;;;;;;6.20;4.15;;;17.00;96.00;;;;;;5050227;28;20059;-68
2021/08/23 08:16:59;;;;;;;5.85;4.50;;;17.00;95.90;;;;;;5038405;28;20484;-68
2021/08/23 08:19:25;;;;;;;4.45;4.05;;;16.90;95.90;;;;;;5042770;28;20026;-68
2021/08/23 08:21:50;;;;;;;5.80;4.53;;;16.90;95.80;;;;;;5049157;28;20033;-69
2021/08/23 08:24:16;;;;;;;8.48;4.25;;;16.90;95.80;;;;;;5050569;28;20032;-68
2021/08/23 08:26:42;;;;;;;6.57;4.93;;;16.80;95.70;;;;;;5049695;28;20120;-68
2021/08/23 08:29:07;;;;;;;6.45;4.88;;;16.80;95.60;;;;;;5032589;28;20025;-69
2021/08/23 08:31:33;;;;;;;4.93;4.30;;;16.80;95.70;;;;;;5050146;28;20078;-68
2021/08/23 08:33:58;;;;;;;5.85;4.78;;;16.90;95.80;;;;;;5032708;28;20021;-68
2021/08/23 08:36:24;;;;;;;7.30;4.70;;;16.90;95.70;;;;;;5049415;28;20036;-68
2021/08/23 08:38:50;;;;;;;6.05;4.13;;;16.90;95.60;;;;;;5050271;28;20028;-68
2021/08/23 08:41:16;;;;;;;5.70;4.10;;;17.10;95.40;;;;;;5049589;28;20044;-68
2021/08/23 08:43:42;;;;;;;7.95;4.28;;;17.10;95.40;;;;;;5050732;28;20092;-68
2021/08/23 08:46:08;;;;;;;5.53;4.53;;;17.20;95.40;;;;;;5048916;28;20119;-69
2021/08/23 08:48:35;;;;;;;5.63;3.63;;;17.30;95.30;;;;;;5064819;28;20029;-68
2021/08/23 08:51:01;;;;;;;5.15;3.65;;;17.80;95.20;;;;;;5052674;28;20033;-68
2021/08/23 08:53:27;;;;;;;4.25;3.50;;;17.90;94.90;;;;;;5047102;28;20029;-68
2021/08/23 08:55:53;;;;;;;5.50;3.20;;;17.90;94.80;;;;;;5049248;28;20036;-68
2021/08/23 08:58:23;;;;;;;4.72;3.17;;;18.10;95.10;;;;;;5049633;28;20060;-68
2021/08/23 09:00:49;;;;;;;6.50;4.00;;;18.10;94.90;;;;;;5048719;28;20025;-68
2021/08/23 09:03:25;;;;;;;7.00;4.32;;;18.10;94.90;;;;;;5049804;28;20071;-69
2021/08/23 09:06:03;;;;;;;8.27;4.47;;;18.00;94.80;;;;;;5049452;28;20025;-69
2021/08/23 09:08:29;;;;;;;5.22;4.50;;;18.00;94.80;;;;;;5049571;28;20113;-68
2021/08/23 09:11:08;;;;;;;6.63;4.78;;;17.90;94.80;;;;;;5050316;28;20432;-69
2021/08/23 09:13:34;;;;;;;6.90;4.43;;;17.90;94.80;;;;;;5049790;28;20104;-68
2021/08/23 09:16:00;;;;;;;6.43;4.20;;;17.90;94.80;;;;;;5042862;28;20124;-69
2021/08/23 09:18:28;;;;;;;6.15;4.80;;;17.90;94.80;;;;;;5042570;28;20025;-68
2021/08/23 09:21:01;;;;;;;4.95;4.43;;;17.90;94.80;;;;;;5026083;28;20026;-68
2021/08/23 09:23:40;;;;;;;8.38;4.93;;;17.90;94.80;;;;;;5049664;28;20100;-68
2021/08/23 09:26:10;;;;;;;6.43;4.65;;;17.90;94.80;;;;;;5048543;28;20029;-68
2021/08/23 09:28:36;;;;;;;9.27;4.97;;;17.90;94.80;;;;;;5049860;28;20025;-68
2021/08/23 09:31:03;;;;;;;5.10;4.60;;;17.90;94.80;;;;;;5050093;28;20037;-67
2021/08/23 09:33:28;;;;;;;9.20;5.05;;;17.90;94.70;;;;;;5049935;28;20025;-68
2021/08/23 09:35:54;;;;;;;8.98;4.90;;;17.90;94.70;;;;;;5048343;28;20087;-69
2021/08/23 09:38:20;;;;;;;6.22;5.05;;;17.90;94.60;;;;;;5049564;28;20017;-69
2021/08/23 09:40:48;;;;;;;5.43;4.75;;;18.00;94.40;;;;;;5049605;28;20417;-68
2021/08/23 09:43:16;;;;;;;4.85;4.25;;;18.20;94.50;;;;;;5049849;28;20028;-68
2021/08/23 09:45:49;;;;;;;8.18;4.30;;;18.30;94.40;;;;;;5074195;22;20313;-90
2021/08/23 09:48:16;;;;;;;4.90;4.18;;;18.30;94.20;;;;;;5057326;28;20154;-90
2021/08/23 09:50:47;;;;;;;4.95;3.53;;;18.30;94.10;;;;;;5062985;28;20024;-91
2021/08/23 09:53:22;;;;;;;5.15;4.20;;;18.30;94.20;;;;;;5056743;28;20028;-92
2021/08/23 09:55:52;;;;;;;3.92;3.35;;;18.30;94.00;;;;;;5052496;28;20025;-92
2021/08/23 09:58:18;;;;;;;3.95;3.30;;;18.30;94.00;;;;;;5043134;28;20446;-91
2021/08/23 10:00:44;;;;;;;4.30;3.90;;;18.30;93.90;;;;;;5047789;28;20032;-92
2021/08/23 10:03:25;;;;;;;3.63;3.13;;;18.30;93.80;;;;;;5040669;28;20027;-92
2021/08/23 10:05:53;;;;;;;5.35;3.30;;;18.30;93.70;;;;;;5061147;28;20040;-92
2021/08/23 10:08:24;;;;;;;4.03;2.97;;;18.20;93.80;;;;;;5060957;28;20020;-93
2021/08/23 10:10:51;;;;;;;3.22;2.92;;;18.20;93.90;;;;;;5061830;28;20201;-91
2021/08/23 10:13:17;;;;;;;4.03;3.10;;;18.20;93.80;;;;;;5059261;28;20502;-93
2021/08/23 10:15:43;;;;;;;3.70;2.97;;;18.20;93.70;;;;;;5061128;28;20028;-91
2021/08/23 10:18:08;;;;;;;3.47;3.08;;;18.20;93.70;;;;;;5062285;28;20016;-91
2021/08/23 10:20:36;;;;;;;3.15;2.83;;;18.20;93.80;;;;;;5056882;28;20024;-92
2021/08/23 10:23:02;;;;;;;3.80;3.08;;;18.20;93.70;;;;;;5063881;28;20016;-92
2021/08/23 10:25:29;;;;;;;4.07;3.67;;;18.30;93.60;;;;;;5078807;28;20066;-91
2021/08/23 10:28:06;;;;;;;3.80;3.20;;;18.50;93.80;;;;;;5058807;28;20024;-92
2021/08/23 10:30:31;;;;;;;5.80;3.17;;;18.70;93.90;;;;;;5064004;28;20037;-92
2021/08/23 10:33:13;;;;;;;3.63;2.78;;;19.00;93.90;;;;;;5039578;28;20025;-92
2021/08/23 10:35:49;;;;;;;3.40;3.10;;;19.30;93.80;;;;;;5041348;28;20063;-92
2021/08/23 10:38:23;;;;;;;4.03;2.42;;;19.60;93.90;;;;;;5039200;28;20035;-94
2021/08/23 10:41:05;;;;;;;3.10;2.47;;;20.00;93.60;;;;;;5043039;28;20036;-94
2021/08/23 10:43:41;;;;;;;;;;;20.30;93.30;;;;;;5046140;28;20055;-94
2021/08/23 10:46:07;;;;;;;3.92;2.47;;;20.50;93.10;;;;;;5049048;28;19947;-93
2021/08/23 10:48:46;;;;;;;2.97;2.25;;;20.50;92.70;;;;;;5075797;28;20024;-93
2021/08/23 10:51:12;;;;;;;2.58;2.13;;;20.60;92.20;;;;;;5070718;28;20025;-92
2021/08/23 10:53:38;;;;;;;3.67;2.28;;;20.60;91.70;;;;;;5037752;28;20532;-91
2021/08/23 10:56:15;;;;;;;4.88;2.25;;;20.60;91.30;;;;;;5038834;28;20115;-92
2021/08/23 10:58:40;;;;;;;2.72;2.40;;;20.50;90.90;;;;;;5037260;28;20036;-92
2021/08/23 11:01:20;;;;;;;3.58;2.78;;;20.40;90.90;;;;;;5055508;28;20120;-92
2021/08/23 11:03:46;;;;;;;5.28;2.78;;;20.50;90.60;;;;;;5049263;28;20025;-93
2021/08/23 11:06:12;;;;;;;4.95;2.60;;;20.60;91.00;;;;;;5057728;28;20025;-94
2021/08/23 11:08:40;;;;;;;3.25;2.63;;;20.70;90.90;;;;;;5046906;28;20035;-94
2021/08/23 11:11:13;;;;;;;6.07;2.90;;;20.70;90.50;;;;;;5046503;28;20447;-94
2021/08/23 11:13:42;;;;;;;4.90;2.85;;;20.60;90.30;;;;;;5060574;28;20031;-93
2021/08/23 11:16:09;;;;;;;2.58;2.33;;;20.60;90.10;;;;;;5056301;28;20028;-93
2021/08/23 11:18:44;;;;;;;3.10;2.25;;;20.60;90.40;;;;;;5057003;28;20016;-93
2021/08/23 11:21:17;;;;;;;2.88;2.45;;;20.60;90.10;;;;;;5055259;28;20029;-93
2021/08/23 11:23:44;;;;;;;4.10;2.60;;;20.70;90.20;;;;;;5055936;28;20029;-93
2021/08/23 11:26:22;;;;;;;2.65;2.35;;;20.80;90.10;;;;;;5055300;28;20032;-92
2021/08/23 11:28:49;;;;;;;5.78;2.70;;;20.80;89.80;;;;;;5058975;28;20085;-93
2021/08/23 11:31:20;;;;;;;4.45;2.70;;;20.80;89.50;;;;;;5057072;28;20045;-92
2021/08/23 11:33:49;;;;;;;2.50;2.30;;;20.90;89.60;;;;;;5059675;28;20020;-93
2021/08/23 11:36:24;;;;;;;7.18;2.70;;;21.00;89.70;;;;;;5066647;28;20044;-93
2021/08/23 11:38:50;;;;;;;2.97;2.65;;;21.10;89.30;;;;;;5072124;28;20097;-94
2021/08/23 11:41:15;;;;;;;6.25;2.55;;;21.20;89.00;;;;;;5061937;28;20041;-90
2021/08/23 11:43:41;;;;;;;3.35;2.20;;;21.40;88.50;;;;;;5055568;28;20120;-89
2021/08/23 11:46:07;;;;;;;4.05;2.17;;;21.50;87.90;;;;;;5053417;28;20036;-90
2021/08/23 11:48:33;;;;;;;3.65;2.72;;;21.50;88.00;;;;;;5075720;28;20690;-89
2021/08/23 11:50:59;;;;;;;5.68;2.53;;;21.60;87.70;;;;;;5071637;28;20077;-90
2021/08/23 11:53:27;;;;;;;2.97;2.50;;;21.70;87.20;;;;;;5056835;28;20488;-90
2021/08/23 11:56:04;;;;;;;3.40;2.42;;;21.80;87.20;;;;;;5052393;28;20111;-90
2021/08/23 11:58:36;;;;;;;4.75;2.33;;;22.00;86.70;;;;;;5035483;28;20020;-89
2021/08/23 12:01:12;;;;;;;3.13;2.10;;;22.20;86.30;;;;;;5035542;28;20028;-90
2021/08/23 12:03:38;;;;;;;3.78;2.50;;;22.40;86.30;;;;;;5045706;28;20031;-90
2021/08/23 12:06:06;;;;;;;4.30;2.60;;;22.60;86.00;;;;;;5052149;28;20111;-90
2021/08/23 12:08:40;;;;;;;5.57;2.78;;;22.70;84.10;;;;;;5054740;28;20112;-91
2021/08/23 12:11:17;;;;;;;3.45;2.20;;;22.70;83.90;;;;;;5050660;28;20029;-90
2021/08/23 12:13:45;;;;;;;4.60;2.40;;;22.60;83.60;;;;;;5034351;28;20411;-89
2021/08/23 12:16:12;;;;;;;3.13;2.83;;;22.70;83.40;;;;;;5041257;28;20500;-89
2021/08/23 12:18:42;;;;;;;3.30;2.70;;;22.60;83.40;;;;;;5045795;28;20102;-88
2021/08/23 12:21:20;;;;;;;2.20;2.00;;;22.60;82.50;;;;;;5072132;28;20029;-89
2021/08/23 12:23:52;;;;;;;2.85;2.58;;;22.50;82.10;;;;;;5034102;28;20017;-89
2021/08/23 12:26:29;;;;;;;;;;;22.50;82.50;;;;;;5034806;28;20037;-89
2021/08/23 12:29:16;;;;;;;4.15;2.35;;;22.70;83.70;;;;;;5052592;28;19930;-90
2021/08/23 12:32:03;;;;;;;3.90;2.17;;;22.80;83.30;;;;;;5054015;28;20032;-89
2021/08/23 12:34:31;;;;;;;3.05;2.50;;;23.00;82.70;;;;;;5053017;28;20378;-89
2021/08/23 12:36:58;;;;;;;3.22;2.13;;;23.00;82.10;;;;;;5043743;28;20111;-90
2021/08/23 12:39:25;;;;;;;3.97;2.40;;;23.10;82.10;;;;;;5035573;28;20422;-91
2021/08/23 12:41:53;;;;;;;3.10;2.75;;;23.10;82.00;;;;;;5044215;28;20085;-88
2021/08/23 12:44:19;;;;;;;3.88;2.92;;;23.20;81.40;;;;;;5053811;28;20020;-91
2021/08/23 12:46:44;;;;;;;3.08;2.78;;;23.20;81.00;;;;;;5057224;28;20530;-91